Time;durP1;ratioP1;P1;durP2;ratioP2;P2;SDS_P1;SDS_P2;PMS_P1;PMS_P2;Temp;Humidity;BMP_temperature;BMP_pressure;BME280_temperature;BME280_humidity;BME280_pressure;Samples;Min_cycle;Max_cycle;Signal;HPM_P1;HPM_P2
2021/03/01 00:02:22;;;;;;;9.02;7.70;;;;;;;;;;5033181;28;20512;-78
2021/03/01 00:04:48;;;;;;;9.25;7.03;;;;;;;;;;5033479;28;20179;-77
2021/03/01 00:07:14;;;;;;;14.03;8.37;;;;;;;;;;5033312;28;20166;-75
2021/03/01 00:09:40;;;;;;;11.10;7.50;;;;;;;;;;5033301;28;20419;-75
2021/03/01 00:12:06;;;;;;;10.40;8.03;;;;;;;;;;5032712;28;20816;-78
2021/03/01 00:17:36;;;;;;;11.18;7.55;;;;;;;;;;5033492;28;20672;-78
2021/03/01 00:20:04;;;;;;;8.50;7.35;;;;;;;;;;5033497;28;20558;-75
2021/03/01 00:22:30;;;;;;;8.05;6.30;;;;;;;;;;5032979;28;20174;-78
2021/03/01 00:24:56;;;;;;;7.80;6.50;;;;;;;;;;5015389;28;20198;-82
2021/03/01 00:27:22;;;;;;;9.23;6.30;;;;;;;;;;5032838;28;20418;-81
2021/03/01 00:29:48;;;;;;;12.17;7.63;;;;;;;;;;5032897;28;20405;-76
2021/03/01 00:32:14;;;;;;;10.00;7.00;;;;;;;;;;5032775;28;20412;-79
2021/03/01 00:34:40;;;;;;;9.90;7.47;;;;;;;;;;5032593;28;21158;-76
2021/03/01 00:37:06;;;;;;;10.23;8.37;;;;;;;;;;5032731;28;20481;-74
2021/03/01 00:39:32;;;;;;;11.40;7.57;;;;;;;;;;5032459;28;20453;-78
2021/03/01 00:41:58;;;;;;;7.80;6.75;;;;;;;;;;5032698;28;20408;-79
2021/03/01 00:47:27;;;;;;;9.20;6.80;;;;;;;;;;5032657;28;20977;-77
2021/03/01 00:49:53;;;;;;;12.60;8.17;;;;;;;;;;5033707;28;20175;-75
2021/03/01 00:52:19;;;;;;;9.27;7.43;;;;;;;;;;5042990;28;20506;-78
2021/03/01 00:54:45;;;;;;;11.00;6.93;;;;;;;;;;5042833;28;20468;-76
2021/03/01 00:57:11;;;;;;;9.40;7.07;;;;;;;;;;5033625;28;20178;-79
2021/03/01 01:02:41;;;;;;;9.43;6.82;;;;;;;;;;5032641;28;20422;-76
2021/03/01 01:05:07;;;;;;;10.38;7.25;;;;;;;;;;5032534;28;20578;-76
2021/03/01 01:07:34;;;;;;;11.40;7.43;;;;;;;;;;5032454;28;20510;-76
2021/03/01 01:10:00;;;;;;;10.52;7.18;;;;;;;;;;5032455;28;20644;-74
2021/03/01 01:12:26;;;;;;;11.18;7.88;;;;;;;;;;5032393;28;20191;-78
2021/03/01 01:17:55;;;;;;;10.55;7.22;;;;;;;;;;5032185;28;20426;-81
2021/03/01 01:20:21;;;;;;;12.05;7.57;;;;;;;;;;5032281;28;20174;-81
2021/03/01 01:22:47;;;;;;;12.00;7.53;;;;;;;;;;5031371;28;20175;-82
2021/03/01 01:25:14;;;;;;;9.23;7.03;;;;;;;;;;5032254;28;20478;-81
2021/03/01 01:27:40;;;;;;;9.85;7.75;;;;;;;;;;5032075;28;20418;-77
2021/03/01 01:33:09;;;;;;;9.35;6.68;;;;;;;;;;5032085;28;20454;-77
2021/03/01 01:35:35;;;;;;;9.90;7.13;;;;;;;;;;5032225;28;20619;-73
2021/03/01 01:38:01;;;;;;;9.60;6.70;;;;;;;;;;5032320;28;20507;-76
2021/03/01 01:40:27;;;;;;;8.90;6.77;;;;;;;;;;5032022;28;20436;-75
2021/03/01 01:42:53;;;;;;;14.65;8.23;;;;;;;;;;5032572;28;20906;-74
2021/03/01 01:45:21;;;;;;;12.63;7.85;;;;;;;;;;5032943;28;20174;-78
2021/03/01 01:47:48;;;;;;;12.15;7.93;;;;;;;;;;5033147;28;20295;-76
2021/03/01 01:50:14;;;;;;;8.15;6.63;;;;;;;;;;5031833;28;20180;-75
2021/03/01 01:52:40;;;;;;;8.32;7.32;;;;;;;;;;5031893;28;20691;-77
2021/03/01 01:55:07;;;;;;;12.35;7.65;;;;;;;;;;5032070;28;20213;-79
2021/03/01 01:57:34;;;;;;;11.02;6.68;;;;;;;;;;5014304;28;20648;-76
2021/03/01 02:03:06;;;;;;;10.63;7.43;;;;;;;;;;5032597;28;20283;-75
2021/03/01 02:05:33;;;;;;;10.13;7.72;;;;;;;;;;5031883;28;20173;-77
2021/03/01 02:08:04;;;;;;;10.73;7.03;;;;;;;;;;5031628;28;20212;-75
2021/03/01 02:10:43;;;;;;;13.77;8.27;;;;;;;;;;5031707;28;20185;-74
2021/03/01 02:13:38;;;;;;;13.75;8.63;;;;;;;;;;5031613;28;20215;-78
2021/03/01 02:16:09;;;;;;;11.00;7.63;;;;;;;;;;5014853;28;20544;-75
2021/03/01 02:18:35;;;;;;;12.27;7.18;;;;;;;;;;5031900;28;20169;-76
2021/03/01 02:21:07;;;;;;;16.23;8.60;;;;;;;;;;5031671;28;20621;-76
2021/03/01 02:23:33;;;;;;;10.20;7.72;;;;;;;;;;5013891;28;20783;-75
2021/03/01 02:26:02;;;;;;;10.67;7.47;;;;;;;;;;5031685;28;20169;-75
2021/03/01 02:28:30;;;;;;;11.88;8.70;;;;;;;;;;5031798;28;20420;-75
2021/03/01 02:30:58;;;;;;;9.80;7.90;;;;;;;;;;5032819;28;20181;-74
2021/03/01 02:33:25;;;;;;;19.25;7.75;;;;;;;;;;5038063;28;20247;-74
2021/03/01 02:35:56;;;;;;;12.85;7.88;;;;;;;;;;5037028;28;20169;-77
2021/03/01 02:38:23;;;;;;;14.38;7.72;;;;;;;;;;5035708;28;20165;-77
2021/03/01 02:40:50;;;;;;;14.10;6.72;;;;;;;;;;5035303;28;20181;-75
2021/03/01 02:43:16;;;;;;;11.13;7.68;;;;;;;;;;5035116;28;20200;-75
2021/03/01 02:45:44;;;;;;;13.48;8.18;;;;;;;;;;5034867;28;20529;-80
2021/03/01 02:48:10;;;;;;;10.38;7.63;;;;;;;;;;5035042;28;20183;-75
2021/03/01 02:50:36;;;;;;;13.35;8.30;;;;;;;;;;5034437;28;20233;-75
2021/03/01 02:53:02;;;;;;;12.45;8.63;;;;;;;;;;5034770;28;20176;-76
2021/03/01 02:55:28;;;;;;;14.43;8.02;;;;;;;;;;5034665;28;20353;-79
2021/03/01 02:57:55;;;;;;;16.38;8.60;;;;;;;;;;5034681;28;20161;-80
2021/03/01 03:03:26;;;;;;;12.45;7.40;;;;;;;;;;5034600;28;20189;-78
2021/03/01 03:05:52;;;;;;;10.95;7.63;;;;;;;;;;5034761;28;20548;-78
2021/03/01 03:08:18;;;;;;;11.75;7.40;;;;;;;;;;5035002;28;20257;-79
2021/03/01 03:10:45;;;;;;;15.65;8.32;;;;;;;;;;5034081;28;20199;-75
2021/03/01 03:13:11;;;;;;;11.32;7.70;;;;;;;;;;5034359;28;20215;-78
2021/03/01 03:18:42;;;;;;;12.57;8.02;;;;;;;;;;5034403;28;20215;-78
2021/03/01 03:21:08;;;;;;;11.45;8.02;;;;;;;;;;5034297;28;20376;-73
2021/03/01 03:23:34;;;;;;;11.57;8.15;;;;;;;;;;5034313;28;20173;-77
2021/03/01 03:26:01;;;;;;;13.52;7.47;;;;;;;;;;5034148;28;20187;-75
2021/03/01 03:28:27;;;;;;;10.65;7.90;;;;;;;;;;5034339;28;20511;-74
2021/03/01 03:33:56;;;;;;;10.93;7.32;;;;;;;;;;5034059;28;20454;-76
2021/03/01 03:36:24;;;;;;;9.88;7.40;;;;;;;;;;5034806;28;20576;-75
2021/03/01 03:38:57;;;;;;;12.70;7.82;;;;;;;;;;5016681;28;20181;-76
2021/03/01 03:41:25;;;;;;;12.68;6.53;;;;;;;;;;5034479;28;20248;-77
2021/03/01 03:43:52;;;;;;;12.05;7.90;;;;;;;;;;5033788;28;20225;-79
2021/03/01 03:46:18;;;;;;;17.45;8.98;;;;;;;;;;5032761;28;20176;-81
2021/03/01 03:48:45;;;;;;;11.10;8.32;;;;;;;;;;5033523;28;20180;-75
2021/03/01 03:51:13;;;;;;;12.18;7.68;;;;;;;;;;5033143;28;20228;-80
2021/03/01 03:53:42;;;;;;;12.20;7.95;;;;;;;;;;5033491;28;20234;-75
2021/03/01 03:56:10;;;;;;;11.52;8.55;;;;;;;;;;5033484;28;20177;-80
2021/03/01 04:04:29;;;;;;;12.57;7.03;;;;;;;;;;5033628;28;20180;-75
2021/03/01 04:06:56;;;;;;;11.95;8.18;;;;;;;;;;5015909;28;20185;-77
2021/03/01 04:09:23;;;;;;;12.20;7.50;;;;;;;;;;5033849;28;20334;-76
2021/03/01 04:11:51;;;;;;;9.63;7.10;;;;;;;;;;5034906;28;20303;-75
2021/03/01 04:14:19;;;;;;;16.05;8.73;;;;;;;;;;5043062;28;20213;-76
2021/03/01 04:16:47;;;;;;;11.70;6.72;;;;;;;;;;5033923;28;20169;-77
2021/03/01 04:19:14;;;;;;;10.90;7.53;;;;;;;;;;5033883;28;20169;-75
2021/03/01 04:21:40;;;;;;;11.65;6.90;;;;;;;;;;5033792;28;20227;-75
2021/03/01 04:24:08;;;;;;;11.95;8.20;;;;;;;;;;5033492;28;20227;-75
2021/03/01 04:26:34;;;;;;;9.98;7.05;;;;;;;;;;5032965;28;20165;-76
2021/03/01 04:29:01;;;;;;;12.02;7.55;;;;;;;;;;5033179;28;20256;-74
2021/03/01 04:31:27;;;;;;;15.52;7.43;;;;;;;;;;5032849;28;20172;-75
2021/03/01 04:33:54;;;;;;;9.75;7.60;;;;;;;;;;5032475;28;20215;-76
2021/03/01 04:36:20;;;;;;;12.82;8.13;;;;;;;;;;5033190;28;20177;-75
2021/03/01 04:38:46;;;;;;;11.95;8.13;;;;;;;;;;5032879;28;20244;-75
2021/03/01 04:41:12;;;;;;;11.40;8.23;;;;;;;;;;5032865;28;20184;-74
2021/03/01 04:43:39;;;;;;;10.93;7.47;;;;;;;;;;5033057;28;20419;-74
2021/03/01 04:49:09;;;;;;;12.48;7.20;;;;;;;;;;5032921;28;20168;-74
2021/03/01 04:51:35;;;;;;;11.55;7.68;;;;;;;;;;5032485;28;20730;-76
2021/03/01 04:54:01;;;;;;;11.30;7.60;;;;;;;;;;5032418;28;20201;-74
2021/03/01 04:56:28;;;;;;;12.52;7.05;;;;;;;;;;5032515;28;20197;-75
2021/03/01 04:58:54;;;;;;;10.05;7.35;;;;;;;;;;5032366;28;20213;-73
2021/03/01 05:04:24;;;;;;;14.65;8.32;;;;;;;;;;5032810;28;20164;-74
2021/03/01 05:06:50;;;;;;;12.35;7.50;;;;;;;;;;5032683;28;20177;-77
2021/03/01 05:09:17;;;;;;;10.33;6.57;;;;;;;;;;5032864;28;20173;-74
2021/03/01 05:11:43;;;;;;;10.68;7.20;;;;;;;;;;5032358;28;20434;-74
2021/03/01 05:19:57;;;;;;;10.52;6.30;;;;;;;;;;5032727;28;20175;-75
2021/03/01 05:22:23;;;;;;;8.50;6.03;;;;;;;;;;5032366;28;20253;-72
2021/03/01 05:24:49;;;;;;;8.77;5.93;;;;;;;;;;5032505;28;20197;-75
2021/03/01 05:27:15;;;;;;;9.27;6.87;;;;;;;;;;5032412;28;20420;-76
2021/03/01 05:29:41;;;;;;;8.93;6.87;;;;;;;;;;5032228;28;20443;-78
2021/03/01 05:32:07;;;;;;;10.05;6.65;;;;;;;;;;5032482;28;20507;-77
2021/03/01 05:34:33;;;;;;;11.17;7.50;;;;;;;;;;5032322;28;20291;-76
2021/03/01 05:36:59;;;;;;;9.63;6.85;;;;;;;;;;5031880;28;20418;-75
2021/03/01 05:39:25;;;;;;;10.98;8.20;;;;;;;;;;5014571;28;20213;-73
2021/03/01 05:41:53;;;;;;;15.57;7.97;;;;;;;;;;5014333;28;20211;-76
2021/03/01 05:44:19;;;;;;;9.00;5.97;;;;;;;;;;5032403;28;20173;-74
2021/03/01 05:49:48;;;;;;;11.55;7.43;;;;;;;;;;5033838;28;20175;-75
2021/03/01 05:52:18;;;;;;;11.77;7.00;;;;;;;;;;5037658;28;20229;-78
2021/03/01 05:54:45;;;;;;;10.20;7.18;;;;;;;;;;5041099;28;20209;-76
2021/03/01 05:57:11;;;;;;;10.13;7.22;;;;;;;;;;5032814;28;20247;-77
2021/03/01 05:59:39;;;;;;;9.83;7.13;;;;;;;;;;5032310;28;20193;-77
2021/03/01 06:02:05;;;;;;;11.57;7.28;;;;;;;;;;5031283;28;20874;-76
2021/03/01 06:04:31;;;;;;;10.32;7.30;;;;;;;;;;5031890;28;20177;-75
2021/03/01 06:06:57;;;;;;;13.10;8.30;;;;;;;;;;5031546;28;20698;-74
2021/03/01 06:09:23;;;;;;;15.80;8.47;;;;;;;;;;5032541;28;20506;-73
2021/03/01 06:11:49;;;;;;;12.90;9.03;;;;;;;;;;5035513;28;20412;-74
2021/03/01 06:14:16;;;;;;;15.93;9.48;;;;;;;;;;5035429;28;20471;-77
2021/03/01 06:19:58;;;;;;;12.60;8.70;;;;;;;;;;5035797;28;20164;-74
2021/03/01 06:22:30;;;;;;;16.77;11.13;;;;;;;;;;5035396;28;20185;-74
2021/03/01 06:25:06;;;;;;;13.90;9.48;;;;;;;;;;5035867;28;20189;-74
2021/03/01 06:27:44;;;;;;;18.05;10.32;;;;;;;;;;5018020;28;20627;-74
2021/03/01 06:30:11;;;;;;;12.88;9.38;;;;;;;;;;5017367;28;20189;-75
2021/03/01 06:32:37;;;;;;;17.17;9.70;;;;;;;;;;5035021;28;20174;-76
2021/03/01 06:35:23;;;;;;;16.90;10.07;;;;;;;;;;5035132;28;20557;-73
2021/03/01 06:38:09;;;;;;;10.73;8.15;;;;;;;;;;5034922;28;20235;-75
2021/03/01 06:40:35;;;;;;;11.68;8.55;;;;;;;;;;5035217;28;20257;-77
2021/03/01 06:43:09;;;;;;;20.93;9.37;;;;;;;;;;5034793;28;20224;-73
2021/03/01 06:45:35;;;;;;;11.73;8.55;;;;;;;;;;5034461;28;20416;-74
2021/03/01 06:48:01;;;;;;;14.07;8.80;;;;;;;;;;5034686;28;20251;-76
2021/03/01 06:50:33;;;;;;;11.63;8.53;;;;;;;;;;5034551;28;20475;-76
2021/03/01 06:53:19;;;;;;;13.85;9.05;;;;;;;;;;5035215;28;20413;-74
2021/03/01 06:55:54;;;;;;;16.63;9.70;;;;;;;;;;5035516;28;20628;-74
2021/03/01 06:58:24;;;;;;;13.35;8.20;;;;;;;;;;5035012;28;20169;-78
2021/03/01 07:00:57;;;;;;;14.07;9.40;;;;;;;;;;5034802;28;20165;-72
2021/03/01 07:03:23;;;;;;;10.80;9.23;;;;;;;;;;5034886;28;20247;-76
2021/03/01 07:05:57;;;;;;;12.07;8.82;;;;;;;;;;5035057;28;20169;-75
2021/03/01 07:08:38;;;;;;;11.98;8.20;;;;;;;;;;5035198;28;20558;-77
2021/03/01 07:11:05;;;;;;;13.95;8.73;;;;;;;;;;5017225;28;20238;-76
2021/03/01 07:13:32;;;;;;;12.57;8.73;;;;;;;;;;5035561;28;20751;-77
2021/03/01 07:15:59;;;;;;;12.50;8.30;;;;;;;;;;5034995;28;20185;-79
2021/03/01 07:18:27;;;;;;;13.52;8.18;;;;;;;;;;5034850;28;20552;-75
2021/03/01 07:20:53;;;;;;;11.27;8.52;;;;;;;;;;5034037;28;20681;-75
2021/03/01 07:23:19;;;;;;;16.83;9.13;;;;;;;;;;5034056;28;20308;-76
2021/03/01 07:25:46;;;;;;;17.42;9.55;;;;;;;;;;5034205;28;20177;-79
2021/03/01 07:28:18;;;;;;;14.50;7.60;;;;;;;;;;5034756;28;20170;-76
2021/03/01 07:30:45;;;;;;;11.90;8.90;;;;;;;;;;5041965;28;20196;-74
2021/03/01 07:33:13;;;;;;;16.08;8.93;;;;;;;;;;5047098;28;20205;-78
2021/03/01 07:35:40;;;;;;;13.80;9.00;;;;;;;;;;5036793;28;20180;-77
2021/03/01 07:38:06;;;;;;;11.20;9.00;;;;;;;;;;5033729;28;20168;-84
2021/03/01 07:40:32;;;;;;;13.55;8.10;;;;;;;;;;5033006;28;20172;-76
2021/03/01 07:42:59;;;;;;;11.75;8.70;;;;;;;;;;5033082;28;20560;-76
2021/03/01 07:45:25;;;;;;;10.05;8.23;;;;;;;;;;5032942;28;20180;-77
2021/03/01 07:47:51;;;;;;;13.77;9.60;;;;;;;;;;5032723;28;20201;-81
2021/03/01 07:50:37;;;;;;;11.63;8.63;;;;;;;;;;5032803;28;20171;-75
2021/03/01 07:53:03;;;;;;;12.45;8.55;;;;;;;;;;5032891;28;20441;-77
2021/03/01 07:55:29;;;;;;;15.07;8.60;;;;;;;;;;5033083;28;20160;-76
2021/03/01 07:58:02;;;;;;;15.73;8.90;;;;;;;;;;5032965;28;20416;-77
2021/03/01 08:00:30;;;;;;;20.27;8.80;;;;;;;;;;5033256;28;20815;-75
2021/03/01 08:02:56;;;;;;;10.85;8.82;;;;;;;;;;5017211;28;20615;-79
2021/03/01 08:05:25;;;;;;;14.60;9.75;;;;;;;;;;5034503;28;20173;-75
2021/03/01 08:07:52;;;;;;;10.23;8.00;;;;;;;;;;5033541;28;20175;-83
2021/03/01 08:10:19;;;;;;;14.50;8.93;;;;;;;;;;5035898;28;20799;-82
2021/03/01 08:12:48;;;;;;;13.90;9.23;;;;;;;;;;5032794;28;20439;-75
2021/03/01 08:21:09;;;;;;;17.83;9.37;;;;;;;;;;5032703;28;20404;-78
2021/03/01 08:23:36;;;;;;;15.13;8.70;;;;;;;;;;5032107;28;20422;-75
2021/03/01 08:26:02;;;;;;;11.43;7.70;;;;;;;;;;5032734;28;20418;-74
2021/03/01 08:28:32;;;;;;;11.83;9.20;;;;;;;;;;5032449;28;20419;-74
2021/03/01 08:31:12;;;;;;;10.93;8.33;;;;;;;;;;5032404;28;20412;-79
2021/03/01 08:33:38;;;;;;;12.97;8.20;;;;;;;;;;5032027;28;20525;-74
2021/03/01 08:36:07;;;;;;;9.70;8.70;;;;;;;;;;5032048;28;20421;-74
2021/03/01 08:38:40;;;;;;;10.07;8.50;;;;;;;;;;5014492;28;20523;-76
2021/03/01 08:41:06;;;;;;;12.10;8.87;;;;;;;;;;5031901;28;20416;-76
2021/03/01 08:43:34;;;;;;;13.70;10.37;;;;;;;;;;5031929;28;20416;-76
2021/03/01 08:46:00;;;;;;;11.83;8.17;;;;;;;;;;5031862;28;20435;-75
2021/03/01 08:48:26;;;;;;;9.20;7.97;;;;;;;;;;5031978;28;20511;-76
2021/03/01 08:50:53;;;;;;;10.10;7.83;;;;;;;;;;5031684;28;20844;-75
2021/03/01 08:53:21;;;;;;;9.80;7.57;;;;;;;;;;5031985;28;20431;-74
2021/03/01 08:55:48;;;;;;;9.87;8.00;;;;;;;;;;5014026;28;20432;-74
2021/03/01 08:58:14;;;;;;;10.80;8.87;;;;;;;;;;5032147;28;20813;-75
2021/03/01 09:00:51;;;;;;;10.30;9.00;;;;;;;;;;5031524;28;20423;-77
2021/03/01 09:03:22;;;;;;;11.93;8.47;;;;;;;;;;5032406;28;20435;-74
2021/03/01 09:05:49;;;;;;;12.73;8.17;;;;;;;;;;5031548;28;20462;-75
2021/03/01 09:08:22;;;;;;;9.97;8.10;;;;;;;;;;5013868;28;20439;-73
2021/03/01 09:10:48;;;;;;;9.83;7.33;;;;;;;;;;5032160;28;20412;-74
2021/03/01 09:13:22;;;;;;;10.23;8.30;;;;;;;;;;5038115;28;20426;-77
2021/03/01 09:15:48;;;;;;;12.63;7.67;;;;;;;;;;5036127;28;20412;-74
2021/03/01 09:18:15;;;;;;;11.70;7.40;;;;;;;;;;5031830;28;20408;-76
2021/03/01 09:20:52;;;;;;;8.90;6.80;;;;;;;;;;5031907;28;20416;-78
2021/03/01 09:23:37;;;;;;;12.13;7.63;;;;;;;;;;5031541;28;20408;-76
2021/03/01 09:26:04;;;;;;;9.70;7.80;;;;;;;;;;5031565;28;20424;-77
2021/03/01 09:28:31;;;;;;;9.30;7.10;;;;;;;;;;5031718;28;20900;-74
2021/03/01 09:31:00;;;;;;;8.40;7.47;;;;;;;;;;5031546;28;20421;-76
2021/03/01 09:33:29;;;;;;;9.17;6.77;;;;;;;;;;5031095;28;20823;-80
2021/03/01 09:35:55;;;;;;;8.47;6.93;;;;;;;;;;5031369;28;20416;-80
2021/03/01 09:38:21;;;;;;;8.07;7.27;;;;;;;;;;5031323;28;20423;-81
2021/03/01 09:40:47;;;;;;;8.67;7.87;;;;;;;;;;5031168;28;20420;-79
2021/03/01 09:43:22;;;;;;;8.10;7.00;;;;;;;;;;5031308;28;21055;-75
2021/03/01 09:45:49;;;;;;;9.50;8.00;;;;;;;;;;5034220;28;20442;-79
2021/03/01 09:48:15;;;;;;;9.80;8.33;;;;;;;;;;5034981;28;20510;-76
2021/03/01 09:50:41;;;;;;;8.13;7.23;;;;;;;;;;5034811;28;20403;-75
2021/03/01 09:53:07;;;;;;;11.93;8.07;;;;;;;;;;5017073;28;20962;-76
2021/03/01 09:55:33;;;;;;;8.93;7.50;;;;;;;;;;5035032;28;20443;-75
2021/03/01 09:57:59;;;;;;;8.13;7.43;;;;;;;;;;5035014;28;20771;-79
2021/03/01 10:00:30;;;;;;;10.40;7.07;;;;;;;;;;5035511;28;20480;-77
2021/03/01 10:06:00;;;;;;;7.63;6.80;;;;;;;;;;5034739;28;20410;-80
2021/03/01 10:08:26;;;;;;;7.70;6.93;;;;;;;;;;5035014;28;20420;-73
2021/03/01 10:10:53;;;;;;;8.83;7.70;;;;;;;;;;5034665;28;20500;-74
2021/03/01 10:13:24;;;;;;;10.73;7.60;;;;;;;;;;5034482;28;20415;-76
2021/03/01 10:15:50;;;;;;;12.63;7.33;;;;;;;;;;5033578;28;20455;-77
2021/03/01 10:18:17;;;;;;;7.33;6.63;;;;;;;;;;5034704;28;20976;-75
2021/03/01 10:20:50;;;;;;;6.97;5.90;;;;;;;;;;5034595;28;20485;-80
2021/03/01 10:23:25;;;;;;;7.37;6.60;;;;;;;;;;5034814;28;20447;-76
2021/03/01 10:26:02;;;;;;;7.27;6.53;;;;;;;;;;5034543;28;20821;-74
2021/03/01 10:28:33;;;;;;;8.30;6.93;;;;;;;;;;5034919;28;20419;-80
2021/03/01 10:31:00;;;;;;;7.93;6.37;;;;;;;;;;5034163;28;20450;-76
2021/03/01 10:33:27;;;;;;;11.60;7.27;;;;;;;;;;5034368;28;20459;-76
2021/03/01 10:36:09;;;;;;;9.57;7.27;;;;;;;;;;5034388;28;20462;-81
2021/03/01 10:38:56;;;;;;;7.90;6.67;;;;;;;;;;5033869;28;20411;-78
2021/03/01 10:41:22;;;;;;;9.20;7.30;;;;;;;;;;5033831;28;20427;-77
2021/03/01 10:43:52;;;;;;;11.70;7.70;;;;;;;;;;5033853;28;20491;-76
2021/03/01 10:46:48;;;;;;;7.57;6.87;;;;;;;;;;5033971;28;20416;-79
2021/03/01 10:49:19;;;;;;;6.83;6.03;;;;;;;;;;5017184;28;20432;-76
2021/03/01 10:51:45;;;;;;;7.50;6.30;;;;;;;;;;5033155;28;20479;-76
2021/03/01 10:54:11;;;;;;;9.33;6.97;;;;;;;;;;5016388;28;20468;-75
2021/03/01 10:56:37;;;;;;;9.20;7.40;;;;;;;;;;5033689;28;20415;-80
2021/03/01 10:59:04;;;;;;;7.73;6.97;;;;;;;;;;5035801;28;20490;-75
2021/03/01 11:01:33;;;;;;;7.37;6.67;;;;;;;;;;5040058;28;20480;-78
2021/03/01 11:04:00;;;;;;;6.43;5.83;;;;;;;;;;5039638;28;20431;-81
2021/03/01 11:06:25;;;;;;;8.33;7.07;;;;;;;;;;5034714;28;20416;-78
2021/03/01 11:08:51;;;;;;;6.97;6.30;;;;;;;;;;5034146;28;20886;-80
2021/03/01 11:11:17;;;;;;;7.83;5.83;;;;;;;;;;5034162;28;20407;-75
2021/03/01 11:13:44;;;;;;;6.00;5.40;;;;;;;;;;5034475;28;20482;-74
2021/03/01 11:16:10;;;;;;;9.30;5.87;;;;;;;;;;5034148;28;20466;-75
2021/03/01 11:21:39;;;;;;;7.10;6.50;;;;;;;;;;5033538;28;20776;-76
2021/03/01 11:24:06;;;;;;;7.73;5.93;;;;;;;;;;5033598;28;20470;-76
2021/03/01 11:26:32;;;;;;;6.00;5.40;;;;;;;;;;5034094;28;20424;-75
2021/03/01 11:28:58;;;;;;;6.97;5.07;;;;;;;;;;5033749;28;20423;-78
2021/03/01 11:31:25;;;;;;;6.57;5.03;;;;;;;;;;5033158;28;20412;-81
2021/03/01 11:36:54;;;;;;;4.63;4.30;;;;;;;;;;5033107;28;20827;-78
2021/03/01 11:39:20;;;;;;;7.70;5.47;;;;;;;;;;5033418;28;20415;-79
2021/03/01 11:41:46;;;;;;;4.60;4.20;;;;;;;;;;5032959;28;20442;-79
2021/03/01 11:44:12;;;;;;;4.73;4.27;;;;;;;;;;5032848;28;20787;-78
2021/03/01 11:46:38;;;;;;;7.93;5.90;;;;;;;;;;5032562;28;20423;-76
2021/03/01 11:49:04;;;;;;;6.37;5.77;;;;;;;;;;5032753;28;20404;-74
2021/03/01 11:51:30;;;;;;;6.03;5.37;;;;;;;;;;5032960;28;20472;-81
2021/03/01 11:53:56;;;;;;;6.10;5.30;;;;;;;;;;5032865;28;20924;-79
2021/03/01 11:56:22;;;;;;;5.90;5.07;;;;;;;;;;5033437;28;20451;-79
2021/03/01 11:58:48;;;;;;;5.07;4.57;;;;;;;;;;5033269;28;20420;-77
2021/03/01 12:01:14;;;;;;;6.00;4.50;;;;;;;;;;5032635;28;20486;-75
2021/03/01 12:06:44;;;;;;;7.57;4.60;;;;;;;;;;5032067;28;20403;-77
2021/03/01 12:09:10;;;;;;;5.77;4.83;;;;;;;;;;5033405;28;20420;-76
2021/03/01 12:11:36;;;;;;;5.03;4.57;;;;;;;;;;5033072;28;20764;-78
2021/03/01 12:14:02;;;;;;;4.40;4.00;;;;;;;;;;5032930;28;20475;-76
2021/03/01 12:16:28;;;;;;;4.57;4.27;;;;;;;;;;5014402;28;20431;-77
2021/03/01 12:18:54;;;;;;;7.83;4.30;;;;;;;;;;5032589;28;20435;-77
2021/03/01 12:21:20;;;;;;;4.57;4.17;;;;;;;;;;5031872;28;20420;-80
2021/03/01 12:23:46;;;;;;;6.57;3.90;;;;;;;;;;5031393;28;20423;-76
2021/03/01 12:26:12;;;;;;;4.27;3.87;;;;;;;;;;5032215;28;20431;-77
2021/03/01 12:28:38;;;;;;;5.27;4.20;;;;;;;;;;5031723;28;20557;-74
2021/03/01 12:31:04;;;;;;;4.53;3.67;;;;;;;;;;5032631;28;20419;-75
2021/03/01 12:33:30;;;;;;;4.13;3.73;;;;;;;;;;5032605;28;20914;-78
2021/03/01 12:35:56;;;;;;;6.30;4.27;;;;;;;;;;5032327;28;20771;-75
2021/03/01 12:38:22;;;;;;;4.47;3.73;;;;;;;;;;5032329;28;20450;-76
2021/03/01 12:40:48;;;;;;;3.90;3.53;;;;;;;;;;5032508;28;20428;-75
2021/03/01 12:43:14;;;;;;;7.90;3.80;;;;;;;;;;5032331;28;20435;-74
2021/03/01 12:45:40;;;;;;;3.50;3.20;;;;;;;;;;5032357;28;20448;-78
2021/03/01 12:48:07;;;;;;;5.97;3.80;;;;;;;;;;5032603;28;20416;-76
2021/03/01 12:50:33;;;;;;;3.73;3.43;;;;;;;;;;5032158;28;20412;-75
2021/03/01 12:52:59;;;;;;;4.40;4.00;;;;;;;;;;5032129;28;20502;-74
2021/03/01 12:55:25;;;;;;;4.70;3.83;;;;;;;;;;5032399;28;20460;-74
2021/03/01 12:57:51;;;;;;;4.70;3.93;;;;;;;;;;5032249;28;20448;-75
2021/03/01 13:00:17;;;;;;;4.50;4.07;;;;;;;;;;5032540;28;20428;-79
2021/03/01 13:02:43;;;;;;;3.97;3.57;;;;;;;;;;5032263;28;20427;-78
2021/03/01 13:05:10;;;;;;;3.90;3.50;;;;;;;;;;5032302;28;20424;-79
2021/03/01 13:07:37;;;;;;;4.43;4.03;;;;;;;;;;5032139;28;20553;-75
2021/03/01 13:10:03;;;;;;;5.20;4.70;;;;;;;;;;5032285;28;20409;-78
2021/03/01 13:12:29;;;;;;;4.80;4.10;;;;;;;;;;5031892;28;20412;-81
2021/03/01 13:14:55;;;;;;;6.60;4.20;;;;;;;;;;5031805;28;20522;-76
2021/03/01 13:17:21;;;;;;;4.40;3.73;;;;;;;;;;5014329;28;20419;-76
2021/03/01 13:19:47;;;;;;;4.53;4.03;;;;;;;;;;5031849;28;20503;-81
2021/03/01 13:22:13;;;;;;;5.23;4.73;;;;;;;;;;5031885;28;20444;-80
2021/03/01 13:24:39;;;;;;;5.50;4.80;;;;;;;;;;5031535;28;20917;-81
2021/03/01 13:27:05;;;;;;;6.67;4.30;;;;;;;;;;5031848;28;20423;-77
2021/03/01 13:29:31;;;;;;;6.30;4.57;;;;;;;;;;5031582;28;20435;-80
2021/03/01 13:31:57;;;;;;;5.23;4.00;;;;;;;;;;5031675;28;20718;-74
2021/03/01 13:37:26;;;;;;;4.67;4.27;;;;;;;;;;5031420;28;20427;-78
2021/03/01 13:39:52;;;;;;;5.70;4.23;;;;;;;;;;5031848;28;20408;-81
2021/03/01 13:42:18;;;;;;;9.90;5.17;;;;;;;;;;5031203;28;20423;-76
2021/03/01 13:44:44;;;;;;;4.77;4.33;;;;;;;;;;5033960;28;20894;-78
2021/03/01 13:47:10;;;;;;;4.87;4.37;;;;;;;;;;5037610;28;20416;-78
2021/03/01 13:52:40;;;;;;;6.40;3.97;;;;;;;;;;5025267;28;20526;-73
2021/03/01 13:55:07;;;;;;;5.20;3.90;;;;;;;;;;5030167;28;20556;-77
2021/03/01 13:57:33;;;;;;;8.50;4.80;;;;;;;;;;5030358;28;20745;-80
2021/03/01 14:00:00;;;;;;;6.67;4.70;;;;;;;;;;5030621;28;20890;-77
2021/03/01 14:02:26;;;;;;;6.40;4.13;;;;;;;;;;5030148;28;20959;-80
2021/03/01 14:07:55;;;;;;;9.20;5.00;;;;;;;;;;5030465;28;20478;-77
2021/03/01 14:10:22;;;;;;;6.50;4.80;;;;;;;;;;5030635;28;20408;-81
2021/03/01 14:12:48;;;;;;;4.90;4.37;;;;;;;;;;5031223;28;20419;-78
2021/03/01 14:15:14;;;;;;;10.40;4.60;;;;;;;;;;5008850;28;20468;-80
2021/03/01 14:17:40;;;;;;;6.30;4.60;;;;;;;;;;5026042;28;20400;-77
2021/03/01 14:23:10;;;;;;;6.63;4.70;;;;;;;;;;5030349;28;20419;-80
2021/03/01 14:25:36;;;;;;;4.70;3.80;;;;;;;;;;5030024;28;20886;-80
2021/03/01 14:28:02;;;;;;;5.57;3.93;;;;;;;;;;5030341;28;20431;-81
2021/03/01 14:30:28;;;;;;;8.53;5.27;;;;;;;;;;5031033;28;20408;-80
2021/03/01 14:32:54;;;;;;;5.80;5.10;;;;;;;;;;5033848;28;20412;-78
2021/03/01 14:38:23;;;;;;;5.20;4.60;;;;;;;;;;5034188;28;20411;-81
2021/03/01 14:40:49;;;;;;;9.00;4.97;;;;;;;;;;5033465;28;20407;-75
2021/03/01 14:43:15;;;;;;;6.30;4.87;;;;;;;;;;5033661;28;20899;-79
2021/03/01 14:45:41;;;;;;;6.20;4.93;;;;;;;;;;5033304;28;20543;-80
2021/03/01 14:48:08;;;;;;;5.63;4.60;;;;;;;;;;5033616;28;20507;-82
2021/03/01 14:50:34;;;;;;;7.30;4.90;;;;;;;;;;5033409;28;20412;-78
2021/03/01 14:52:59;;;;;;;8.37;4.30;;;;;;;;;;5033355;28;20981;-82
2021/03/01 14:55:26;;;;;;;4.97;4.47;;;;;;;;;;5033729;28;20544;-74
2021/03/01 14:57:52;;;;;;;5.63;4.40;;;;;;;;;;5033872;28;20407;-76
2021/03/01 15:00:18;;;;;;;5.83;4.20;;;;;;;;;;5033291;28;20424;-80
2021/03/01 15:02:44;;;;;;;6.17;5.30;;;;;;;;;;5033816;28;20408;-78
2021/03/01 15:08:13;;;;;;;4.43;3.40;;;;;;;;;;5032964;28;20458;-75
2021/03/01 15:10:39;;;;;;;6.50;4.30;;;;;;;;;;5033740;28;20431;-80
2021/03/01 15:13:05;;;;;;;4.40;3.70;;;;;;;;;;5033618;28;20519;-79
2021/03/01 15:15:31;;;;;;;6.00;3.80;;;;;;;;;;5034335;28;20471;-75
2021/03/01 15:17:57;;;;;;;5.27;4.00;;;;;;;;;;5034402;28;20416;-74
2021/03/01 15:23:27;;;;;;;6.63;4.90;;;;;;;;;;5033936;28;20422;-76
2021/03/01 15:25:54;;;;;;;5.00;4.20;;;;;;;;;;5033929;28;20793;-74
2021/03/01 15:28:20;;;;;;;5.00;4.47;;;;;;;;;;5033779;28;20427;-74
2021/03/01 15:30:46;;;;;;;5.93;3.90;;;;;;;;;;5033006;28;20507;-80
2021/03/01 15:33:12;;;;;;;8.97;4.40;;;;;;;;;;5033263;28;21060;-74
2021/03/01 15:38:42;;;;;;;3.93;3.30;;;;;;;;;;5033279;28;20418;-75
2021/03/01 15:41:08;;;;;;;3.90;3.60;;;;;;;;;;5033021;28;20423;-75
2021/03/01 15:43:35;;;;;;;5.50;3.53;;;;;;;;;;5032533;28;20427;-74
2021/03/01 15:46:01;;;;;;;4.23;3.43;;;;;;;;;;5032922;28;20423;-81
2021/03/01 15:48:27;;;;;;;4.90;3.60;;;;;;;;;;5033640;28;20439;-74
2021/03/01 15:53:57;;;;;;;7.27;4.80;;;;;;;;;;5033054;28;20568;-74
2021/03/01 15:56:23;;;;;;;6.80;4.00;;;;;;;;;;5033255;28;20427;-75
2021/03/01 15:58:49;;;;;;;7.60;4.53;;;;;;;;;;5033596;28;20508;-75
2021/03/01 16:01:15;;;;;;;5.60;4.40;;;;;;;;;;5033146;28;20424;-74
2021/03/01 16:03:41;;;;;;;6.00;3.70;;;;;;;;;;5034181;28;20778;-81
2021/03/01 16:09:11;;;;;;;5.97;3.50;;;;;;;;;;5034812;28;20451;-75
2021/03/01 16:11:41;;;;;;;4.90;4.07;;;;;;;;;;5033745;28;20416;-74
2021/03/01 16:14:07;;;;;;;7.23;4.43;;;;;;;;;;5015395;28;20471;-75
2021/03/01 16:16:33;;;;;;;5.23;3.47;;;;;;;;;;5032982;28;20831;-79
2021/03/01 16:18:59;;;;;;;6.27;3.87;;;;;;;;;;5032987;28;20913;-77